createdAt,value
2023-02-05T00:05:37.833Z,-1.99
2023-02-05T00:17:38.277Z,-1.80
2023-02-05T00:29:38.732Z,-1.77
2023-02-05T00:41:39.163Z,-1.23
2023-02-05T00:53:39.634Z,-1.66
2023-02-05T01:05:40.089Z,-1.66
2023-02-05T01:17:40.510Z,-1.55
2023-02-05T01:29:41.039Z,-1.56
2023-02-05T01:41:41.467Z,-1.63
2023-02-05T01:53:41.821Z,-1.63
2023-02-05T02:05:42.310Z,-1.58
2023-02-05T02:17:42.807Z,-1.72
2023-02-05T02:29:43.277Z,-1.81
2023-02-05T02:41:43.689Z,-1.87
2023-02-05T02:53:44.141Z,-2.02
2023-02-05T03:05:44.600Z,-2.04
2023-02-05T03:17:45.070Z,-2.30
2023-02-05T03:29:45.486Z,-2.32
2023-02-05T03:41:45.931Z,-2.38
2023-02-05T03:53:46.357Z,-2.39
2023-02-05T04:05:46.868Z,-2.76
2023-02-05T04:17:47.285Z,-2.73
2023-02-05T04:29:47.750Z,-2.81
2023-02-05T04:41:48.174Z,-3.10
2023-02-05T04:53:48.696Z,-3.02
2023-02-05T05:05:49.114Z,-3.34
2023-02-05T05:17:49.548Z,-3.41
2023-02-05T05:29:49.993Z,-3.20
2023-02-05T05:41:50.495Z,-3.41
2023-02-05T05:53:50.921Z,-3.58
2023-02-05T18:41:31.033Z,-3.90
2023-02-05T18:53:31.473Z,-4.44
2023-02-05T19:05:31.929Z,-4.48
2023-02-05T19:17:32.445Z,-4.32
2023-02-05T19:29:32.858Z,-4.76
2023-02-05T19:41:33.268Z,-4.55
2023-02-05T19:53:33.719Z,-4.76
2023-02-05T20:05:34.204Z,-4.67
2023-02-05T20:17:34.682Z,-5.17
2023-02-05T20:29:35.129Z,-5.03
2023-02-05T20:41:35.555Z,-5.30
2023-02-05T20:53:36.028Z,-5.30
2023-02-05T21:05:36.465Z,-5.63
2023-02-05T21:17:36.869Z,-5.77
2023-02-05T21:29:37.333Z,-6.12
2023-02-05T21:41:37.815Z,-6.23
2023-02-05T21:53:38.255Z,-6.00
2023-02-05T22:05:38.715Z,-5.84
2023-02-05T22:17:39.192Z,-5.54
2023-02-05T22:29:39.619Z,-5.69
2023-02-05T22:41:40.060Z,-5.09
2023-02-05T22:53:40.516Z,-5.35
2023-02-05T23:05:40.987Z,-5.35
2023-02-05T23:17:41.428Z,-5.38
2023-02-05T23:29:41.881Z,-5.77
2023-02-05T23:41:42.343Z,-5.50
2023-02-05T23:53:42.800Z,-5.72
